sensor_id;sensor_type;location;lat;lon;timestamp;P1;durP1;ratioP1;P2;durP2;ratioP2
44824;SDS011;30542;47.928;2.138;2022-12-18T00:03:57;3.67;;;3.15;;
44824;SDS011;30542;47.928;2.138;2022-12-18T00:08:58;3.70;;;3.40;;
44824;SDS011;30542;47.928;2.138;2022-12-18T00:13:59;3.60;;;3.30;;
44824;SDS011;30542;47.928;2.138;2022-12-18T00:19:00;2.80;;;2.60;;
44824;SDS011;30542;47.928;2.138;2022-12-18T00:24:01;3.50;;;3.20;;
44824;SDS011;30542;47.928;2.138;2022-12-18T00:29:06;3.50;;;3.20;;
44824;SDS011;30542;47.928;2.138;2022-12-18T00:34:10;3.38;;;3.08;;
44824;SDS011;30542;47.928;2.138;2022-12-18T00:39:11;3.53;;;3.22;;
44824;SDS011;30542;47.928;2.138;2022-12-18T00:44:13;4.10;;;3.40;;
44824;SDS011;30542;47.928;2.138;2022-12-18T00:49:15;3.50;;;3.20;;
44824;SDS011;30542;47.928;2.138;2022-12-18T00:54:17;3.13;;;2.83;;
44824;SDS011;30542;47.928;2.138;2022-12-18T00:59:18;3.50;;;3.20;;
44824;SDS011;30542;47.928;2.138;2022-12-18T01:04:18;3.85;;;3.55;;
44824;SDS011;30542;47.928;2.138;2022-12-18T01:09:18;3.27;;;2.97;;
44824;SDS011;30542;47.928;2.138;2022-12-18T01:14:19;3.50;;;3.20;;
44824;SDS011;30542;47.928;2.138;2022-12-18T01:19:19;3.27;;;2.97;;
44824;SDS011;30542;47.928;2.138;2022-12-18T01:24:20;2.67;;;2.47;;
44824;SDS011;30542;47.928;2.138;2022-12-18T01:29:20;2.70;;;2.50;;
44824;SDS011;30542;47.928;2.138;2022-12-18T01:34:21;2.70;;;2.50;;
44824;SDS011;30542;47.928;2.138;2022-12-18T01:39:21;3.03;;;2.78;;
44824;SDS011;30542;47.928;2.138;2022-12-18T01:49:50;3.53;;;3.25;;
44824;SDS011;30542;47.928;2.138;2022-12-18T01:54:51;3.20;;;3.00;;
44824;SDS011;30542;47.928;2.138;2022-12-18T01:59:53;3.63;;;3.00;;
44824;SDS011;30542;47.928;2.138;2022-12-18T02:04:59;2.90;;;2.70;;
44824;SDS011;30542;47.928;2.138;2022-12-18T02:15:27;3.30;;;3.00;;
44824;SDS011;30542;47.928;2.138;2022-12-18T02:20:52;3.00;;;2.80;;
44824;SDS011;30542;47.928;2.138;2022-12-18T02:31:34;3.45;;;3.15;;
44824;SDS011;30542;47.928;2.138;2022-12-18T02:36:40;3.72;;;3.42;;
44824;SDS011;30542;47.928;2.138;2022-12-18T02:41:42;3.10;;;2.80;;
44824;SDS011;30542;47.928;2.138;2022-12-18T02:46:44;2.95;;;2.75;;
44824;SDS011;30542;47.928;2.138;2022-12-18T02:57:11;3.00;;;2.78;;
44824;SDS011;30542;47.928;2.138;2022-12-18T03:02:35;3.08;;;2.88;;
44824;SDS011;30542;47.928;2.138;2022-12-18T03:07:41;2.97;;;2.78;;
44824;SDS011;30542;47.928;2.138;2022-12-18T03:12:47;2.95;;;2.75;;
44824;SDS011;30542;47.928;2.138;2022-12-18T03:17:57;3.17;;;2.90;;
44824;SDS011;30542;47.928;2.138;2022-12-18T03:23:06;3.20;;;3.00;;
44824;SDS011;30542;47.928;2.138;2022-12-18T03:28:12;3.30;;;3.00;;
44824;SDS011;30542;47.928;2.138;2022-12-18T03:33:16;3.13;;;2.92;;
44824;SDS011;30542;47.928;2.138;2022-12-18T03:38:23;2.75;;;2.55;;
44824;SDS011;30542;47.928;2.138;2022-12-18T03:49:09;2.83;;;2.63;;
44824;SDS011;30542;47.928;2.138;2022-12-18T03:54:10;3.15;;;2.92;;
44824;SDS011;30542;47.928;2.138;2022-12-18T03:59:12;3.15;;;2.90;;
44824;SDS011;30542;47.928;2.138;2022-12-18T04:04:15;2.85;;;2.63;;
44824;SDS011;30542;47.928;2.138;2022-12-18T04:09:19;2.67;;;2.47;;
44824;SDS011;30542;47.928;2.138;2022-12-18T04:14:20;2.72;;;2.53;;
44824;SDS011;30542;47.928;2.138;2022-12-18T04:19:20;2.70;;;2.50;;
44824;SDS011;30542;47.928;2.138;2022-12-18T04:24:21;2.73;;;2.53;;
44824;SDS011;30542;47.928;2.138;2022-12-18T04:29:21;2.80;;;2.60;;
44824;SDS011;30542;47.928;2.138;2022-12-18T04:34:22;2.77;;;2.57;;
44824;SDS011;30542;47.928;2.138;2022-12-18T04:39:22;3.17;;;2.77;;
44824;SDS011;30542;47.928;2.138;2022-12-18T04:44:22;2.90;;;2.70;;
44824;SDS011;30542;47.928;2.138;2022-12-18T04:49:23;3.17;;;2.87;;
44824;SDS011;30542;47.928;2.138;2022-12-18T04:54:23;2.85;;;2.65;;
44824;SDS011;30542;47.928;2.138;2022-12-18T04:59:24;3.00;;;2.80;;
44824;SDS011;30542;47.928;2.138;2022-12-18T05:04:24;2.77;;;2.57;;
44824;SDS011;30542;47.928;2.138;2022-12-18T05:09:24;2.90;;;2.70;;
44824;SDS011;30542;47.928;2.138;2022-12-18T05:14:25;3.13;;;2.92;;
44824;SDS011;30542;47.928;2.138;2022-12-18T05:19:27;2.80;;;2.60;;
44824;SDS011;30542;47.928;2.138;2022-12-18T05:24:27;2.33;;;2.13;;
44824;SDS011;30542;47.928;2.138;2022-12-18T05:29:28;2.27;;;2.07;;
44824;SDS011;30542;47.928;2.138;2022-12-18T05:34:28;3.00;;;2.80;;
44824;SDS011;30542;47.928;2.138;2022-12-18T05:39:28;2.50;;;2.30;;
44824;SDS011;30542;47.928;2.138;2022-12-18T05:44:29;3.03;;;2.83;;
44824;SDS011;30542;47.928;2.138;2022-12-18T05:49:29;2.67;;;2.47;;
44824;SDS011;30542;47.928;2.138;2022-12-18T05:54:30;2.60;;;2.40;;
44824;SDS011;30542;47.928;2.138;2022-12-18T05:59:31;2.55;;;2.35;;
44824;SDS011;30542;47.928;2.138;2022-12-18T06:04:31;2.37;;;2.17;;
44824;SDS011;30542;47.928;2.138;2022-12-18T06:09:31;2.65;;;2.45;;
44824;SDS011;30542;47.928;2.138;2022-12-18T06:14:32;2.58;;;2.38;;
44824;SDS011;30542;47.928;2.138;2022-12-18T06:19:32;2.33;;;2.13;;
44824;SDS011;30542;47.928;2.138;2022-12-18T06:24:33;3.03;;;2.83;;
44824;SDS011;30542;47.928;2.138;2022-12-18T06:29:33;2.50;;;2.30;;
44824;SDS011;30542;47.928;2.138;2022-12-18T06:34:34;3.13;;;2.55;;
44824;SDS011;30542;47.928;2.138;2022-12-18T06:39:36;2.15;;;2.00;;
44824;SDS011;30542;47.928;2.138;2022-12-18T06:44:37;2.53;;;2.13;;
44824;SDS011;30542;47.928;2.138;2022-12-18T06:49:37;3.43;;;2.50;;
44824;SDS011;30542;47.928;2.138;2022-12-18T06:54:38;2.80;;;2.60;;
44824;SDS011;30542;47.928;2.138;2022-12-18T06:59:39;2.37;;;2.07;;
44824;SDS011;30542;47.928;2.138;2022-12-18T07:04:39;2.50;;;2.30;;
44824;SDS011;30542;47.928;2.138;2022-12-18T07:09:40;4.20;;;3.80;;
44824;SDS011;30542;47.928;2.138;2022-12-18T07:14:40;3.73;;;3.33;;
44824;SDS011;30542;47.928;2.138;2022-12-18T07:19:40;3.70;;;3.40;;
44824;SDS011;30542;47.928;2.138;2022-12-18T07:24:41;4.67;;;4.20;;
44824;SDS011;30542;47.928;2.138;2022-12-18T07:29:41;5.20;;;4.80;;
44824;SDS011;30542;47.928;2.138;2022-12-18T07:34:42;6.27;;;5.77;;
44824;SDS011;30542;47.928;2.138;2022-12-18T07:39:42;5.97;;;5.20;;
44824;SDS011;30542;47.928;2.138;2022-12-18T07:44:42;5.53;;;5.03;;
44824;SDS011;30542;47.928;2.138;2022-12-18T07:49:43;4.35;;;3.63;;
44824;SDS011;30542;47.928;2.138;2022-12-18T07:54:43;5.20;;;3.87;;
44824;SDS011;30542;47.928;2.138;2022-12-18T07:59:44;3.70;;;3.40;;
44824;SDS011;30542;47.928;2.138;2022-12-18T08:04:44;3.55;;;3.25;;
44824;SDS011;30542;47.928;2.138;2022-12-18T08:09:44;3.53;;;3.23;;
44824;SDS011;30542;47.928;2.138;2022-12-18T08:14:45;3.30;;;3.00;;
44824;SDS011;30542;47.928;2.138;2022-12-18T08:19:45;3.43;;;3.00;;
44824;SDS011;30542;47.928;2.138;2022-12-18T08:24:45;3.80;;;3.50;;
44824;SDS011;30542;47.928;2.138;2022-12-18T08:29:46;3.63;;;3.33;;
44824;SDS011;30542;47.928;2.138;2022-12-18T08:34:46;3.30;;;3.00;;
44824;SDS011;30542;47.928;2.138;2022-12-18T08:39:47;4.15;;;3.72;;
44824;SDS011;30542;47.928;2.138;2022-12-18T08:44:47;3.80;;;3.50;;
44824;SDS011;30542;47.928;2.138;2022-12-18T08:49:48;4.47;;;3.50;;
44824;SDS011;30542;47.928;2.138;2022-12-18T08:54:48;5.10;;;3.30;;
44824;SDS011;30542;47.928;2.138;2022-12-18T08:59:48;3.87;;;3.57;;
44824;SDS011;30542;47.928;2.138;2022-12-18T09:04:49;4.07;;;3.67;;
44824;SDS011;30542;47.928;2.138;2022-12-18T09:09:49;3.53;;;3.23;;
44824;SDS011;30542;47.928;2.138;2022-12-18T09:14:49;5.37;;;4.13;;
44824;SDS011;30542;47.928;2.138;2022-12-18T09:19:50;5.13;;;4.10;;
44824;SDS011;30542;47.928;2.138;2022-12-18T09:24:50;4.50;;;3.72;;
44824;SDS011;30542;47.928;2.138;2022-12-18T09:29:51;5.67;;;3.90;;
44824;SDS011;30542;47.928;2.138;2022-12-18T09:34:51;6.00;;;3.93;;
44824;SDS011;30542;47.928;2.138;2022-12-18T09:39:52;6.03;;;3.85;;
44824;SDS011;30542;47.928;2.138;2022-12-18T09:44:53;6.97;;;4.00;;
44824;SDS011;30542;47.928;2.138;2022-12-18T09:50:05;8.15;;;4.38;;
44824;SDS011;30542;47.928;2.138;2022-12-18T09:55:33;8.00;;;4.45;;
44824;SDS011;30542;47.928;2.138;2022-12-18T10:00:37;6.35;;;4.15;;
44824;SDS011;30542;47.928;2.138;2022-12-18T10:27:56;16.30;;;5.35;;
44824;SDS011;30542;47.928;2.138;2022-12-18T10:33:00;16.02;;;5.18;;
44824;SDS011;30542;47.928;2.138;2022-12-18T10:38:21;8.45;;;4.43;;
44824;SDS011;30542;47.928;2.138;2022-12-18T10:43:37;12.27;;;4.75;;
44824;SDS011;30542;47.928;2.138;2022-12-18T10:54:18;13.07;;;5.10;;
44824;SDS011;30542;47.928;2.138;2022-12-18T10:59:21;7.32;;;3.88;;
44824;SDS011;30542;47.928;2.138;2022-12-18T11:04:29;8.07;;;3.57;;
44824;SDS011;30542;47.928;2.138;2022-12-18T11:09:32;7.88;;;3.92;;
44824;SDS011;30542;47.928;2.138;2022-12-18T11:20:24;6.63;;;4.47;;
44824;SDS011;30542;47.928;2.138;2022-12-18T11:25:27;7.13;;;4.15;;
44824;SDS011;30542;47.928;2.138;2022-12-18T11:30:28;5.57;;;3.97;;
44824;SDS011;30542;47.928;2.138;2022-12-18T11:46:19;5.68;;;3.95;;
44824;SDS011;30542;47.928;2.138;2022-12-18T11:51:34;5.18;;;4.15;;
44824;SDS011;30542;47.928;2.138;2022-12-18T12:01:50;5.90;;;3.90;;
44824;SDS011;30542;47.928;2.138;2022-12-18T12:18:03;4.28;;;3.10;;
44824;SDS011;30542;47.928;2.138;2022-12-18T12:39:43;6.47;;;3.35;;
44824;SDS011;30542;47.928;2.138;2022-12-18T12:44:49;5.00;;;3.13;;
44824;SDS011;30542;47.928;2.138;2022-12-18T12:49:54;4.80;;;3.10;;
44824;SDS011;30542;47.928;2.138;2022-12-18T12:54:56;6.32;;;3.10;;
44824;SDS011;30542;47.928;2.138;2022-12-18T13:05:38;5.43;;;3.05;;
44824;SDS011;30542;47.928;2.138;2022-12-18T13:10:46;4.78;;;2.85;;
44824;SDS011;30542;47.928;2.138;2022-12-18T13:15:50;4.43;;;2.60;;
44824;SDS011;30542;47.928;2.138;2022-12-18T13:21:10;5.82;;;2.83;;
44824;SDS011;30542;47.928;2.138;2022-12-18T13:36:30;3.78;;;3.40;;
44824;SDS011;30542;47.928;2.138;2022-12-18T13:41:33;4.45;;;2.72;;
44824;SDS011;30542;47.928;2.138;2022-12-18T13:46:44;4.93;;;2.90;;
44824;SDS011;30542;47.928;2.138;2022-12-18T13:51:50;4.05;;;2.92;;
44824;SDS011;30542;47.928;2.138;2022-12-18T13:56:53;3.28;;;2.97;;
44824;SDS011;30542;47.928;2.138;2022-12-18T14:01:55;4.03;;;2.70;;
44824;SDS011;30542;47.928;2.138;2022-12-18T14:12:01;5.93;;;2.83;;
44824;SDS011;30542;47.928;2.138;2022-12-18T14:17:20;3.33;;;2.70;;
44824;SDS011;30542;47.928;2.138;2022-12-18T14:22:24;7.78;;;3.55;;
44824;SDS011;30542;47.928;2.138;2022-12-18T14:27:29;12.65;;;4.20;;
44824;SDS011;30542;47.928;2.138;2022-12-18T14:32:30;9.63;;;3.93;;
44824;SDS011;30542;47.928;2.138;2022-12-18T14:37:30;10.00;;;4.40;;
44824;SDS011;30542;47.928;2.138;2022-12-18T14:42:31;8.85;;;4.40;;
44824;SDS011;30542;47.928;2.138;2022-12-18T14:47:32;8.02;;;3.80;;
44824;SDS011;30542;47.928;2.138;2022-12-18T14:52:32;8.53;;;4.23;;
44824;SDS011;30542;47.928;2.138;2022-12-18T14:57:35;5.35;;;3.40;;
44824;SDS011;30542;47.928;2.138;2022-12-18T15:02:37;5.88;;;3.50;;
44824;SDS011;30542;47.928;2.138;2022-12-18T15:07:42;7.00;;;4.13;;
44824;SDS011;30542;47.928;2.138;2022-12-18T15:17:56;7.53;;;3.58;;
44824;SDS011;30542;47.928;2.138;2022-12-18T15:22:57;4.77;;;3.07;;
44824;SDS011;30542;47.928;2.138;2022-12-18T15:27:57;7.40;;;3.60;;
44824;SDS011;30542;47.928;2.138;2022-12-18T15:33:17;8.98;;;4.07;;
44824;SDS011;30542;47.928;2.138;2022-12-18T15:38:25;5.68;;;3.58;;
44824;SDS011;30542;47.928;2.138;2022-12-18T15:43:26;4.07;;;3.28;;
44824;SDS011;30542;47.928;2.138;2022-12-18T15:48:40;6.07;;;3.65;;
44824;SDS011;30542;47.928;2.138;2022-12-18T15:53:41;5.45;;;2.95;;
44824;SDS011;30542;47.928;2.138;2022-12-18T15:58:43;5.85;;;3.72;;
44824;SDS011;30542;47.928;2.138;2022-12-18T16:03:43;4.60;;;2.42;;
44824;SDS011;30542;47.928;2.138;2022-12-18T16:08:44;4.40;;;2.90;;
44824;SDS011;30542;47.928;2.138;2022-12-18T16:13:44;4.67;;;2.90;;
44824;SDS011;30542;47.928;2.138;2022-12-18T16:18:44;3.77;;;3.17;;
44824;SDS011;30542;47.928;2.138;2022-12-18T16:23:45;4.17;;;3.03;;
44824;SDS011;30542;47.928;2.138;2022-12-18T16:28:45;4.63;;;2.80;;
44824;SDS011;30542;47.928;2.138;2022-12-18T16:33:45;3.70;;;2.50;;
44824;SDS011;30542;47.928;2.138;2022-12-18T16:38:46;4.03;;;2.73;;
44824;SDS011;30542;47.928;2.138;2022-12-18T16:43:46;5.07;;;2.93;;
44824;SDS011;30542;47.928;2.138;2022-12-18T16:48:47;2.80;;;2.50;;
44824;SDS011;30542;47.928;2.138;2022-12-18T16:53:47;3.90;;;2.60;;
44824;SDS011;30542;47.928;2.138;2022-12-18T16:58:51;3.90;;;2.70;;
44824;SDS011;30542;47.928;2.138;2022-12-18T17:03:53;4.38;;;2.80;;
44824;SDS011;30542;47.928;2.138;2022-12-18T17:08:59;2.35;;;2.15;;
44824;SDS011;30542;47.928;2.138;2022-12-18T17:14:07;3.17;;;2.88;;
44824;SDS011;30542;47.928;2.138;2022-12-18T17:19:09;2.85;;;2.58;;
44824;SDS011;30542;47.928;2.138;2022-12-18T17:24:10;2.92;;;2.55;;
44824;SDS011;30542;47.928;2.138;2022-12-18T17:29:11;2.97;;;2.30;;
44824;SDS011;30542;47.928;2.138;2022-12-18T17:34:14;2.95;;;2.50;;
44824;SDS011;30542;47.928;2.138;2022-12-18T17:39:17;3.63;;;2.72;;
44824;SDS011;30542;47.928;2.138;2022-12-18T17:44:18;3.78;;;2.92;;
44824;SDS011;30542;47.928;2.138;2022-12-18T17:49:19;3.13;;;2.37;;
44824;SDS011;30542;47.928;2.138;2022-12-18T17:54:20;2.80;;;2.40;;
44824;SDS011;30542;47.928;2.138;2022-12-18T17:59:20;3.43;;;2.30;;
44824;SDS011;30542;47.928;2.138;2022-12-18T18:04:21;2.70;;;2.30;;
44824;SDS011;30542;47.928;2.138;2022-12-18T18:09:22;2.78;;;2.58;;
44824;SDS011;30542;47.928;2.138;2022-12-18T18:14:22;3.67;;;2.40;;
44824;SDS011;30542;47.928;2.138;2022-12-18T18:19:23;2.97;;;2.15;;
44824;SDS011;30542;47.928;2.138;2022-12-18T18:24:24;4.55;;;2.08;;
44824;SDS011;30542;47.928;2.138;2022-12-18T18:29:25;4.28;;;2.53;;
44824;SDS011;30542;47.928;2.138;2022-12-18T18:34:27;2.30;;;2.10;;
44824;SDS011;30542;47.928;2.138;2022-12-18T18:39:29;2.60;;;2.33;;
44824;SDS011;30542;47.928;2.138;2022-12-18T18:44:29;2.73;;;2.10;;
44824;SDS011;30542;47.928;2.138;2022-12-18T18:49:30;3.38;;;2.25;;
44824;SDS011;30542;47.928;2.138;2022-12-18T18:54:30;2.00;;;1.90;;
44824;SDS011;30542;47.928;2.138;2022-12-18T18:59:31;3.43;;;2.00;;
44824;SDS011;30542;47.928;2.138;2022-12-18T19:04:32;4.90;;;2.20;;
44824;SDS011;30542;47.928;2.138;2022-12-18T19:09:33;3.42;;;2.30;;
44824;SDS011;30542;47.928;2.138;2022-12-18T19:14:35;3.38;;;1.90;;
44824;SDS011;30542;47.928;2.138;2022-12-18T19:19:35;4.27;;;1.83;;
44824;SDS011;30542;47.928;2.138;2022-12-18T19:24:36;4.10;;;2.30;;
44824;SDS011;30542;47.928;2.138;2022-12-18T19:29:36;2.72;;;2.25;;
44824;SDS011;30542;47.928;2.138;2022-12-18T19:34:37;2.57;;;1.77;;
44824;SDS011;30542;47.928;2.138;2022-12-18T19:39:37;2.95;;;2.33;;
44824;SDS011;30542;47.928;2.138;2022-12-18T19:44:38;2.93;;;1.83;;
44824;SDS011;30542;47.928;2.138;2022-12-18T19:49:38;3.70;;;2.08;;
44824;SDS011;30542;47.928;2.138;2022-12-18T19:54:39;2.87;;;1.90;;
44824;SDS011;30542;47.928;2.138;2022-12-18T19:59:39;3.03;;;1.83;;
44824;SDS011;30542;47.928;2.138;2022-12-18T20:04:40;2.53;;;1.70;;
44824;SDS011;30542;47.928;2.138;2022-12-18T20:09:40;3.28;;;2.00;;
44824;SDS011;30542;47.928;2.138;2022-12-18T20:14:40;1.90;;;1.60;;
44824;SDS011;30542;47.928;2.138;2022-12-18T20:19:41;3.65;;;1.70;;
44824;SDS011;30542;47.928;2.138;2022-12-18T20:24:42;3.08;;;1.90;;
44824;SDS011;30542;47.928;2.138;2022-12-18T20:29:42;1.80;;;1.07;;
44824;SDS011;30542;47.928;2.138;2022-12-18T20:34:43;2.30;;;1.95;;
44824;SDS011;30542;47.928;2.138;2022-12-18T20:39:43;4.17;;;1.77;;
44824;SDS011;30542;47.928;2.138;2022-12-18T20:44:44;2.55;;;1.88;;
44824;SDS011;30542;47.928;2.138;2022-12-18T20:49:44;2.67;;;1.58;;
44824;SDS011;30542;47.928;2.138;2022-12-18T20:54:45;2.72;;;1.45;;
44824;SDS011;30542;47.928;2.138;2022-12-18T20:59:45;3.20;;;1.80;;
44824;SDS011;30542;47.928;2.138;2022-12-18T21:04:46;2.45;;;1.90;;
44824;SDS011;30542;47.928;2.138;2022-12-18T21:09:46;1.23;;;1.13;;
44824;SDS011;30542;47.928;2.138;2022-12-18T21:14:46;3.53;;;1.30;;
44824;SDS011;30542;47.928;2.138;2022-12-18T21:19:47;2.30;;;1.60;;
44824;SDS011;30542;47.928;2.138;2022-12-18T21:24:47;2.43;;;1.60;;
44824;SDS011;30542;47.928;2.138;2022-12-18T21:29:48;1.60;;;1.50;;
44824;SDS011;30542;47.928;2.138;2022-12-18T21:34:48;2.53;;;1.77;;
44824;SDS011;30542;47.928;2.138;2022-12-18T21:39:50;1.58;;;1.27;;
44824;SDS011;30542;47.928;2.138;2022-12-18T21:44:51;1.63;;;1.33;;
44824;SDS011;30542;47.928;2.138;2022-12-18T21:49:51;1.40;;;1.20;;
44824;SDS011;30542;47.928;2.138;2022-12-18T21:54:52;1.17;;;1.08;;
44824;SDS011;30542;47.928;2.138;2022-12-18T21:59:53;1.67;;;1.57;;
44824;SDS011;30542;47.928;2.138;2022-12-18T22:04:53;2.63;;;1.47;;
44824;SDS011;30542;47.928;2.138;2022-12-18T22:09:53;1.57;;;1.20;;
44824;SDS011;30542;47.928;2.138;2022-12-18T22:14:54;1.73;;;1.60;;
44824;SDS011;30542;47.928;2.138;2022-12-18T22:19:54;1.43;;;1.30;;
44824;SDS011;30542;47.928;2.138;2022-12-18T22:24:54;1.90;;;1.60;;
44824;SDS011;30542;47.928;2.138;2022-12-18T22:29:55;1.23;;;1.00;;
44824;SDS011;30542;47.928;2.138;2022-12-18T22:35:04;1.48;;;1.35;;
44824;SDS011;30542;47.928;2.138;2022-12-18T22:40:05;1.35;;;1.25;;
44824;SDS011;30542;47.928;2.138;2022-12-18T22:45:06;1.55;;;1.40;;
44824;SDS011;30542;47.928;2.138;2022-12-18T22:50:09;1.35;;;1.25;;
44824;SDS011;30542;47.928;2.138;2022-12-18T22:55:11;1.70;;;1.23;;
44824;SDS011;30542;47.928;2.138;2022-12-18T23:00:12;1.17;;;1.07;;
44824;SDS011;30542;47.928;2.138;2022-12-18T23:05:13;1.60;;;1.27;;
44824;SDS011;30542;47.928;2.138;2022-12-18T23:10:13;1.27;;;1.00;;
44824;SDS011;30542;47.928;2.138;2022-12-18T23:15:13;1.93;;;1.07;;
44824;SDS011;30542;47.928;2.138;2022-12-18T23:20:14;1.33;;;1.23;;
44824;SDS011;30542;47.928;2.138;2022-12-18T23:25:14;1.20;;;1.10;;
44824;SDS011;30542;47.928;2.138;2022-12-18T23:30:15;1.70;;;1.40;;
44824;SDS011;30542;47.928;2.138;2022-12-18T23:35:15;1.20;;;1.10;;
44824;SDS011;30542;47.928;2.138;2022-12-18T23:40:16;3.05;;;1.15;;
44824;SDS011;30542;47.928;2.138;2022-12-18T23:45:16;2.80;;;1.00;;
44824;SDS011;30542;47.928;2.138;2022-12-18T23:50:17;1.88;;;1.00;;
44824;SDS011;30542;47.928;2.138;2022-12-18T23:55:17;1.38;;;0.90;;
